createdAt,value
2016-12-17T00:01:01.868Z,997.82
2016-12-17T00:02:10.579Z,997.79
2016-12-17T00:03:19.264Z,997.77
2016-12-17T00:04:27.952Z,997.88
2016-12-17T00:05:36.641Z,997.83
2016-12-17T00:06:45.331Z,997.86
2016-12-17T00:07:54.020Z,997.84
2016-12-17T00:09:02.707Z,997.84
2016-12-17T00:10:11.396Z,997.81
2016-12-17T00:11:20.108Z,997.8
2016-12-17T00:12:28.800Z,997.76
2016-12-17T00:13:37.487Z,997.78
2016-12-17T00:14:46.173Z,997.77
2016-12-17T00:15:55.169Z,997.7
2016-12-17T00:17:03.961Z,997.69
2016-12-17T00:18:12.649Z,997.71
2016-12-17T00:19:21.661Z,997.71
2016-12-17T00:20:30.347Z,997.73
2016-12-17T00:21:39.037Z,997.76
2016-12-17T00:22:47.739Z,997.73
2016-12-17T00:23:56.476Z,997.78
2016-12-17T00:25:05.480Z,997.74
2016-12-17T00:26:14.169Z,997.76
2016-12-17T00:27:22.854Z,997.83
2016-12-17T00:28:31.547Z,997.85
2016-12-17T00:29:40.232Z,997.9
2016-12-17T00:30:48.918Z,997.86
2016-12-17T00:31:57.604Z,997.89
2016-12-17T00:33:06.287Z,997.9
2016-12-17T00:34:14.968Z,997.88
2016-12-17T00:35:23.658Z,997.84
2016-12-17T00:36:32.377Z,997.83
2016-12-17T00:37:41.060Z,997.79
2016-12-17T00:38:49.751Z,997.69
2016-12-17T00:39:58.440Z,997.67
2016-12-17T00:41:07.124Z,997.67
2016-12-17T00:42:15.816Z,997.63
2016-12-17T00:43:24.517Z,997.66
2016-12-17T00:44:33.204Z,997.66
2016-12-17T00:45:41.886Z,997.66
2016-12-17T00:46:50.598Z,997.64
2016-12-17T00:47:59.287Z,997.67
2016-12-17T00:49:07.971Z,997.69
2016-12-17T00:50:16.655Z,997.65
2016-12-17T00:51:25.339Z,997.69
2016-12-17T00:52:34.028Z,997.62
2016-12-17T00:53:42.715Z,997.67
2016-12-17T00:54:51.404Z,997.61
2016-12-17T00:56:00.118Z,997.62
2016-12-17T00:57:08.810Z,997.57
2016-12-17T00:58:17.497Z,997.58
2016-12-17T00:59:26.187Z,997.62
2016-12-17T01:00:34.869Z,997.66
2016-12-17T01:01:43.554Z,997.65
2016-12-17T01:02:52.240Z,997.64
2016-12-17T01:04:00.926Z,997.63
2016-12-17T01:05:09.926Z,997.62
2016-12-17T01:06:18.605Z,997.61
2016-12-17T01:07:27.291Z,997.64
2016-12-17T01:08:35.977Z,997.71
2016-12-17T01:09:44.664Z,997.69
2016-12-17T01:10:53.350Z,997.64
2016-12-17T01:12:02.032Z,997.64
2016-12-17T01:13:10.754Z,997.68
2016-12-17T01:14:19.442Z,997.67
2016-12-17T01:15:28.477Z,997.7
2016-12-17T01:16:37.159Z,997.65
2016-12-17T01:17:45.848Z,997.69
2016-12-17T01:18:54.546Z,997.66
2016-12-17T01:20:03.234Z,997.65
2016-12-17T01:21:11.917Z,997.68
2016-12-17T01:22:20.596Z,997.72
2016-12-17T01:23:29.287Z,997.71
2016-12-17T01:24:37.978Z,997.68
2016-12-17T01:25:46.667Z,997.63
2016-12-17T01:26:55.356Z,997.63
2016-12-17T01:28:04.043Z,997.63
2016-12-17T01:29:12.730Z,997.64
2016-12-17T01:30:21.732Z,997.63
2016-12-17T01:31:30.421Z,997.66
2016-12-17T01:32:39.112Z,997.65
2016-12-17T01:33:47.796Z,997.64
2016-12-17T01:34:56.519Z,997.6
2016-12-17T01:36:05.213Z,997.59
2016-12-17T01:37:13.899Z,997.66
2016-12-17T01:38:22.582Z,997.68
2016-12-17T01:39:31.276Z,997.61
2016-12-17T01:40:39.967Z,997.69
2016-12-17T01:41:48.652Z,997.63
2016-12-17T01:42:57.347Z,997.56
2016-12-17T01:44:06.353Z,997.57
2016-12-17T01:45:15.038Z,997.59
2016-12-17T01:46:23.719Z,997.52
2016-12-17T01:47:32.408Z,997.5
2016-12-17T01:48:41.129Z,997.54
2016-12-17T01:49:49.847Z,997.52
2016-12-17T01:50:58.536Z,997.6
2016-12-17T01:52:07.222Z,997.55
2016-12-17T01:53:15.908Z,997.57
2016-12-17T01:54:24.593Z,997.52
2016-12-17T01:55:33.278Z,997.49
2016-12-17T01:56:41.965Z,997.48
2016-12-17T01:57:50.652Z,997.51
2016-12-17T01:58:59.338Z,997.48
2016-12-17T02:00:08.028Z,997.47
2016-12-17T02:01:16.732Z,997.51
2016-12-17T02:02:25.428Z,997.43
2016-12-17T02:03:34.117Z,997.43
2016-12-17T02:04:42.804Z,997.45
2016-12-17T02:05:51.495Z,997.43
2016-12-17T02:07:00.203Z,997.43
2016-12-17T02:08:08.893Z,997.42
2016-12-17T02:09:17.925Z,997.4
2016-12-17T02:10:26.617Z,997.4
2016-12-17T02:11:35.306Z,997.39
2016-12-17T02:12:43.990Z,997.36
2016-12-17T02:13:52.680Z,997.33
2016-12-17T02:15:01.365Z,997.32
2016-12-17T02:16:10.076Z,997.32
2016-12-17T02:17:18.760Z,997.29
2016-12-17T02:18:27.459Z,997.25
2016-12-17T02:19:36.145Z,997.29
2016-12-17T02:20:44.831Z,997.28
2016-12-17T02:21:53.523Z,997.24
2016-12-17T02:23:02.241Z,997.21
2016-12-17T02:24:10.936Z,997.2
2016-12-17T02:25:19.624Z,997.18
2016-12-17T02:26:28.319Z,997.18
2016-12-17T02:27:37.007Z,997.16
2016-12-17T02:28:45.691Z,997.18
2016-12-17T02:29:54.377Z,997.15
2016-12-17T02:31:03.058Z,997.18
2016-12-17T02:32:11.745Z,997.11
2016-12-17T02:33:20.430Z,997.1
2016-12-17T02:34:29.444Z,997.08
2016-12-17T02:35:38.126Z,997.11
2016-12-17T02:36:46.817Z,997.11
2016-12-17T02:37:55.506Z,997.12
2016-12-17T02:39:04.197Z,997.13
2016-12-17T02:40:12.885Z,997.13
2016-12-17T02:41:21.574Z,997.13
2016-12-17T02:42:30.258Z,997.07
2016-12-17T02:43:38.946Z,997.07
2016-12-17T02:44:47.661Z,997.04
2016-12-17T02:45:56.349Z,997.04
2016-12-17T02:47:05.042Z,997.05
2016-12-17T02:48:13.730Z,997.04
2016-12-17T02:49:22.416Z,996.99
2016-12-17T02:50:31.101Z,996.95
2016-12-17T02:51:39.786Z,996.99
2016-12-17T02:52:48.474Z,996.89
2016-12-17T02:53:57.158Z,996.85
2016-12-17T02:55:05.846Z,996.87
2016-12-17T02:56:14.535Z,996.83
2016-12-17T02:57:23.225Z,996.78
2016-12-17T02:58:31.917Z,996.75
2016-12-17T02:59:40.605Z,996.75
2016-12-17T03:00:49.299Z,996.77
2016-12-17T03:01:57.986Z,996.75
2016-12-17T03:03:06.677Z,996.74
2016-12-17T03:04:15.360Z,996.74
2016-12-17T03:05:24.044Z,996.74
2016-12-17T03:06:32.733Z,996.79
2016-12-17T03:07:41.450Z,996.85
2016-12-17T03:08:50.173Z,996.87
2016-12-17T03:09:58.862Z,996.86
2016-12-17T03:11:07.547Z,996.88
2016-12-17T03:12:16.240Z,996.91
2016-12-17T03:13:24.928Z,996.95
2016-12-17T03:14:33.612Z,996.86
2016-12-17T03:15:42.329Z,996.85
2016-12-17T03:16:51.032Z,996.85
2016-12-17T03:17:59.716Z,996.88
2016-12-17T03:19:08.724Z,996.85
2016-12-17T03:20:17.726Z,996.81
2016-12-17T03:21:26.408Z,996.85
2016-12-17T03:22:35.092Z,996.86
2016-12-17T03:23:43.781Z,996.88
2016-12-17T03:24:52.464Z,996.9
2016-12-17T03:26:01.156Z,996.83
2016-12-17T03:27:09.852Z,996.87
2016-12-17T03:28:18.535Z,996.83
2016-12-17T03:29:27.221Z,996.78
2016-12-17T03:30:35.908Z,996.81
2016-12-17T03:31:44.595Z,996.82
2016-12-17T03:32:53.279Z,996.78
2016-12-17T03:34:01.967Z,996.79
2016-12-17T03:35:10.656Z,996.82
2016-12-17T03:36:19.348Z,996.83
2016-12-17T03:37:28.038Z,996.79
2016-12-17T03:38:36.757Z,996.8
2016-12-17T03:39:45.444Z,996.76
2016-12-17T03:40:54.159Z,996.75
2016-12-17T03:42:02.853Z,996.77
2016-12-17T03:43:11.540Z,996.81
2016-12-17T03:44:20.226Z,996.83
2016-12-17T03:45:28.949Z,996.86
2016-12-17T03:46:37.641Z,996.87
2016-12-17T03:47:46.330Z,996.86
2016-12-17T03:48:55.044Z,996.92
2016-12-17T03:50:03.731Z,996.88
2016-12-17T03:51:12.420Z,996.86
2016-12-17T03:52:21.108Z,996.83
2016-12-17T03:53:29.795Z,996.88
2016-12-17T03:54:38.481Z,996.88
2016-12-17T03:55:47.169Z,996.88
2016-12-17T03:56:55.852Z,996.92
2016-12-17T03:58:04.565Z,996.88
2016-12-17T03:59:13.256Z,996.87
2016-12-17T04:00:21.941Z,996.79
2016-12-17T04:01:30.630Z,996.81
2016-12-17T04:02:39.313Z,996.84
2016-12-17T04:03:48.004Z,996.87
2016-12-17T04:04:56.693Z,996.85
2016-12-17T04:06:05.385Z,996.88
2016-12-17T04:07:14.073Z,996.95
2016-12-17T04:08:22.767Z,996.96
2016-12-17T04:09:31.450Z,996.95
2016-12-17T04:10:40.145Z,996.92
2016-12-17T04:11:48.833Z,996.93
2016-12-17T04:12:57.525Z,996.94
2016-12-17T04:14:06.211Z,996.92
2016-12-17T04:15:14.895Z,996.92
2016-12-17T04:16:23.582Z,996.95
2016-12-17T04:17:32.586Z,996.96
2016-12-17T04:18:41.278Z,996.97
2016-12-17T04:19:49.967Z,996.94
2016-12-17T04:20:58.654Z,996.9
2016-12-17T04:22:07.349Z,996.86
2016-12-17T04:23:16.051Z,996.87
2016-12-17T04:24:24.738Z,996.83
2016-12-17T04:25:33.425Z,996.79
2016-12-17T04:26:42.113Z,996.82
2016-12-17T04:27:50.802Z,996.8
2016-12-17T04:28:59.517Z,996.83
2016-12-17T04:30:08.204Z,996.78
2016-12-17T04:31:16.886Z,996.77
2016-12-17T04:32:25.571Z,996.76
2016-12-17T04:33:34.255Z,996.79
2016-12-17T04:34:42.943Z,996.78
2016-12-17T04:35:51.626Z,996.73
2016-12-17T04:37:00.315Z,996.72
2016-12-17T04:38:09.008Z,996.75
2016-12-17T04:39:17.720Z,996.73
2016-12-17T04:40:26.408Z,996.73
2016-12-17T04:41:35.095Z,996.74
2016-12-17T04:42:43.786Z,996.78
2016-12-17T04:43:52.478Z,996.76
2016-12-17T04:45:01.481Z,996.76
2016-12-17T04:46:10.165Z,996.73
2016-12-17T04:47:18.851Z,996.72
2016-12-17T04:48:27.566Z,996.7
2016-12-17T04:49:36.263Z,996.64
2016-12-17T04:50:44.951Z,996.66
2016-12-17T04:51:53.939Z,996.62
2016-12-17T04:53:02.630Z,996.62
2016-12-17T04:54:11.320Z,996.64
2016-12-17T04:55:20.010Z,996.7
2016-12-17T04:56:28.697Z,996.74
2016-12-17T04:57:37.452Z,996.7
2016-12-17T04:58:46.171Z,996.68
2016-12-17T04:59:54.860Z,996.68
2016-12-17T05:01:03.549Z,996.66
2016-12-17T05:02:12.244Z,996.66
2016-12-17T05:03:20.931Z,996.62
2016-12-17T05:04:29.619Z,996.64
2016-12-17T05:05:38.305Z,996.6
2016-12-17T05:06:47.309Z,996.61
2016-12-17T05:07:55.996Z,996.59
2016-12-17T05:09:04.736Z,996.57
2016-12-17T05:10:13.433Z,996.56
2016-12-17T05:11:22.121Z,996.54
2016-12-17T05:12:31.124Z,996.55
2016-12-17T05:13:39.813Z,996.57
2016-12-17T05:14:48.498Z,996.51
2016-12-17T05:15:57.187Z,996.49
2016-12-17T05:17:05.871Z,996.45
2016-12-17T05:18:14.557Z,996.42
2016-12-17T05:19:23.241Z,996.4
2016-12-17T05:20:31.927Z,996.43
2016-12-17T05:21:40.610Z,996.44
2016-12-17T05:22:49.332Z,996.45
2016-12-17T05:23:58.024Z,996.42
2016-12-17T05:25:06.718Z,996.43
2016-12-17T05:26:15.404Z,996.48
2016-12-17T05:27:24.088Z,996.45
2016-12-17T05:28:32.770Z,996.47
2016-12-17T05:29:41.457Z,996.44
2016-12-17T05:30:50.143Z,996.42
2016-12-17T05:31:58.832Z,996.43
2016-12-17T05:33:07.521Z,996.36
2016-12-17T05:34:16.205Z,996.4
2016-12-17T05:35:24.895Z,996.39
2016-12-17T05:36:33.583Z,996.4
2016-12-17T05:37:42.269Z,996.4
2016-12-17T05:38:50.957Z,996.41
2016-12-17T05:39:59.642Z,996.36
2016-12-17T05:41:08.328Z,996.46
2016-12-17T05:42:17.018Z,996.39
2016-12-17T05:43:25.707Z,996.46
2016-12-17T05:44:34.398Z,996.5
2016-12-17T05:45:43.087Z,996.53
2016-12-17T05:46:51.775Z,996.55
2016-12-17T05:48:00.466Z,996.57
2016-12-17T05:49:09.154Z,996.53
2016-12-17T05:50:17.851Z,996.49
2016-12-17T05:51:26.538Z,996.49
2016-12-17T05:52:35.223Z,996.46
2016-12-17T05:53:43.911Z,996.42
2016-12-17T05:54:52.601Z,996.44
2016-12-17T05:56:01.293Z,996.44
2016-12-17T05:57:09.976Z,996.4
2016-12-17T05:58:18.670Z,996.41
2016-12-17T05:59:27.361Z,996.44
2016-12-17T06:00:36.048Z,996.43
2016-12-17T06:01:44.737Z,996.39
2016-12-17T06:02:53.426Z,996.33
2016-12-17T06:04:02.111Z,996.3
2016-12-17T06:05:10.800Z,996.32
2016-12-17T06:06:19.485Z,996.38
2016-12-17T06:07:28.177Z,996.4
2016-12-17T06:08:36.866Z,996.42
2016-12-17T06:09:45.557Z,996.44
2016-12-17T06:10:54.246Z,996.49
2016-12-17T06:12:02.935Z,996.53
2016-12-17T06:13:11.622Z,996.54
2016-12-17T06:14:20.312Z,996.51
2016-12-17T06:15:29.004Z,996.5
2016-12-17T06:16:37.695Z,996.44
2016-12-17T06:17:46.377Z,996.42
2016-12-17T06:18:55.063Z,996.49
2016-12-17T06:20:03.747Z,996.47
2016-12-17T06:21:12.436Z,996.47
2016-12-17T06:22:21.151Z,996.49
2016-12-17T06:23:29.837Z,996.48
2016-12-17T06:24:38.526Z,996.49
2016-12-17T06:25:47.215Z,996.49
2016-12-17T06:26:55.912Z,996.48
2016-12-17T06:28:04.598Z,996.54
2016-12-17T06:29:13.289Z,996.56
2016-12-17T06:30:21.980Z,996.51
2016-12-17T06:31:30.666Z,996.46
2016-12-17T06:32:39.361Z,996.45
2016-12-17T06:33:48.046Z,996.46
2016-12-17T06:34:56.734Z,996.48
2016-12-17T06:36:05.418Z,996.46
2016-12-17T06:37:14.103Z,996.42
2016-12-17T06:38:22.790Z,996.37
2016-12-17T06:39:31.480Z,996.36
2016-12-17T06:40:40.166Z,996.39
2016-12-17T06:41:48.861Z,996.41
2016-12-17T06:42:57.549Z,996.38
2016-12-17T06:44:06.236Z,996.33
2016-12-17T06:45:14.927Z,996.34
2016-12-17T06:46:23.617Z,996.36
2016-12-17T06:47:32.304Z,996.38
2016-12-17T06:48:40.991Z,996.34
2016-12-17T06:49:49.684Z,996.29
2016-12-17T06:50:58.369Z,996.31
2016-12-17T06:52:07.052Z,996.32
2016-12-17T06:53:15.740Z,996.35
2016-12-17T06:54:24.426Z,996.41
2016-12-17T06:55:33.109Z,996.39
2016-12-17T06:56:41.793Z,996.4
2016-12-17T06:57:50.478Z,996.35
2016-12-17T06:58:59.162Z,996.35
2016-12-17T07:00:07.849Z,996.41
2016-12-17T07:01:16.537Z,996.44
2016-12-17T07:02:25.252Z,996.45
2016-12-17T07:03:33.943Z,996.43
2016-12-17T07:04:42.660Z,996.36
2016-12-17T07:05:51.351Z,996.32
2016-12-17T07:07:00.056Z,996.3
2016-12-17T07:08:08.744Z,996.28
2016-12-17T07:09:17.433Z,996.24
2016-12-17T07:10:26.120Z,996.25
2016-12-17T07:11:34.804Z,996.33
2016-12-17T07:12:43.488Z,996.32
2016-12-17T07:13:52.180Z,996.34
2016-12-17T07:15:00.869Z,996.34
2016-12-17T07:16:09.559Z,996.3
2016-12-17T07:17:18.247Z,996.3
2016-12-17T07:18:26.936Z,996.3
2016-12-17T07:19:35.630Z,996.33
2016-12-17T07:20:44.316Z,996.33
2016-12-17T07:21:53.001Z,996.27
2016-12-17T07:23:01.688Z,996.26
2016-12-17T07:24:10.375Z,996.28
2016-12-17T07:25:19.064Z,996.2
2016-12-17T07:26:27.809Z,996.21
2016-12-17T07:27:36.494Z,996.16
2016-12-17T07:28:45.186Z,996.17
2016-12-17T07:29:53.869Z,996.16
2016-12-17T07:31:02.553Z,996.21
2016-12-17T07:32:11.244Z,996.21
2016-12-17T07:33:19.930Z,996.25
2016-12-17T07:34:28.616Z,996.23
2016-12-17T07:35:37.298Z,996.29
2016-12-17T07:36:45.983Z,996.29
2016-12-17T07:37:54.670Z,996.33
2016-12-17T07:39:03.360Z,996.27
2016-12-17T07:40:12.053Z,996.29
2016-12-17T07:41:20.734Z,996.27
2016-12-17T07:42:29.418Z,996.27
2016-12-17T07:43:38.110Z,996.19
2016-12-17T07:44:46.799Z,996.22
2016-12-17T07:45:55.481Z,996.14
2016-12-17T07:47:04.173Z,996.12
2016-12-17T07:48:12.856Z,996.1
2016-12-17T07:49:21.542Z,996.09
2016-12-17T07:50:30.224Z,996.01
2016-12-17T07:51:38.911Z,996.03
2016-12-17T07:52:47.598Z,996.08
2016-12-17T07:53:56.280Z,996.11
2016-12-17T07:55:04.966Z,996.11
2016-12-17T07:56:13.650Z,996.14
2016-12-17T07:57:22.336Z,996.11
2016-12-17T07:58:31.019Z,996.12
2016-12-17T07:59:39.706Z,996.12
2016-12-17T08:00:48.390Z,996.14
2016-12-17T08:01:57.072Z,996.17
2016-12-17T08:03:06.085Z,996.21
2016-12-17T08:04:14.772Z,996.21
2016-12-17T08:05:23.456Z,996.24
2016-12-17T08:06:32.146Z,996.23
2016-12-17T08:07:40.833Z,996.25
2016-12-17T08:08:49.518Z,996.25
2016-12-17T08:09:58.204Z,996.21
2016-12-17T08:11:06.889Z,996.23
2016-12-17T08:12:15.576Z,996.29
2016-12-17T08:13:24.331Z,996.27
2016-12-17T08:14:33.020Z,996.29
2016-12-17T08:15:41.712Z,996.29
2016-12-17T08:16:50.397Z,996.32
2016-12-17T08:17:59.083Z,996.32
2016-12-17T08:19:07.769Z,996.28
2016-12-17T08:20:16.452Z,996.27
2016-12-17T08:21:25.144Z,996.22
2016-12-17T08:22:33.835Z,996.15
2016-12-17T08:23:42.519Z,996.19
2016-12-17T08:24:51.206Z,996.17
2016-12-17T08:25:59.896Z,996.17
2016-12-17T08:27:08.580Z,996.16
2016-12-17T08:28:17.270Z,996.16
2016-12-17T08:29:25.952Z,996.16
2016-12-17T08:30:34.633Z,996.18
2016-12-17T08:31:43.326Z,996.14
2016-12-17T08:32:52.012Z,996.17
2016-12-17T08:34:00.698Z,996.12
2016-12-17T08:35:09.380Z,996.13
2016-12-17T08:36:18.070Z,996.16
2016-12-17T08:37:26.758Z,996.2
2016-12-17T08:38:35.446Z,996.32
2016-12-17T08:39:44.132Z,996.24
2016-12-17T08:40:52.824Z,996.25
2016-12-17T08:42:01.520Z,996.25
2016-12-17T08:43:10.210Z,996.23
2016-12-17T08:44:18.902Z,996.29
2016-12-17T08:45:27.586Z,996.22
2016-12-17T08:46:36.278Z,996.24
2016-12-17T08:47:44.997Z,996.2
2016-12-17T08:48:53.683Z,996.16
2016-12-17T08:50:02.367Z,996.15
2016-12-17T08:51:11.054Z,996.2
2016-12-17T08:52:19.885Z,996.17
2016-12-17T08:53:28.579Z,996.16
2016-12-17T08:54:37.262Z,996.18
2016-12-17T08:55:45.949Z,996.11
2016-12-17T08:56:54.641Z,996.08
2016-12-17T08:58:03.323Z,996.02
2016-12-17T08:59:12.044Z,996.05
2016-12-17T09:00:20.728Z,996.05
2016-12-17T09:01:29.419Z,996.07
2016-12-17T09:02:38.104Z,996.08
2016-12-17T09:03:46.817Z,996.11
2016-12-17T09:04:55.506Z,996.16
2016-12-17T09:06:04.192Z,996.14
2016-12-17T09:07:13.191Z,996.14
2016-12-17T09:08:21.883Z,996.11
2016-12-17T09:09:30.566Z,996.07
2016-12-17T09:10:39.257Z,996.07
2016-12-17T09:11:47.968Z,996.05
2016-12-17T09:12:56.658Z,996.01
2016-12-17T09:14:05.348Z,996
2016-12-17T09:15:14.036Z,996.02
2016-12-17T09:16:22.726Z,995.98
2016-12-17T09:17:31.730Z,995.93
2016-12-17T09:18:40.417Z,995.92
2016-12-17T09:19:49.102Z,995.99
2016-12-17T09:20:57.786Z,995.95
2016-12-17T09:22:06.469Z,995.99
2016-12-17T09:23:15.152Z,995.9
2016-12-17T09:24:23.832Z,995.88
2016-12-17T09:25:32.523Z,995.91
2016-12-17T09:26:41.211Z,995.86
2016-12-17T09:27:49.897Z,995.84
2016-12-17T09:28:58.587Z,995.85
2016-12-17T09:30:07.272Z,995.72
2016-12-17T09:31:15.955Z,995.69
2016-12-17T09:32:24.644Z,995.67
2016-12-17T09:33:33.335Z,995.66
2016-12-17T09:34:42.020Z,995.69
2016-12-17T09:35:50.706Z,995.6
2016-12-17T09:36:59.397Z,995.58
2016-12-17T09:38:08.082Z,995.6
2016-12-17T09:39:16.770Z,995.6
2016-12-17T09:40:25.452Z,995.58
2016-12-17T09:41:34.139Z,995.58
2016-12-17T09:42:42.823Z,995.54
2016-12-17T09:43:51.513Z,995.52
2016-12-17T09:45:00.197Z,995.49
2016-12-17T09:46:08.888Z,995.5
2016-12-17T09:47:17.574Z,995.51
2016-12-17T09:48:26.257Z,995.6
2016-12-17T09:49:34.942Z,995.63
2016-12-17T09:50:43.630Z,995.6
2016-12-17T09:51:52.322Z,995.61
2016-12-17T09:53:01.006Z,995.55
2016-12-17T09:54:09.688Z,995.53
2016-12-17T09:55:18.374Z,995.54
2016-12-17T09:56:27.063Z,995.49
2016-12-17T09:57:35.751Z,995.55
2016-12-17T09:58:44.438Z,995.6
2016-12-17T09:59:53.125Z,995.59
2016-12-17T10:01:01.812Z,995.52
2016-12-17T10:02:10.500Z,995.5
2016-12-17T10:03:19.184Z,995.49
2016-12-17T10:04:27.867Z,995.54
2016-12-17T10:05:36.554Z,995.52
2016-12-17T10:06:45.240Z,995.57
2016-12-17T10:07:53.924Z,995.53
2016-12-17T10:09:02.610Z,995.5
2016-12-17T10:10:11.303Z,995.49
2016-12-17T10:11:19.990Z,995.45
2016-12-17T10:12:28.728Z,995.44
2016-12-17T10:13:37.422Z,995.46
2016-12-17T10:14:46.107Z,995.5
2016-12-17T10:15:55.111Z,995.52
2016-12-17T10:17:03.793Z,995.47
2016-12-17T10:18:12.483Z,995.42
2016-12-17T10:19:21.173Z,995.36
2016-12-17T10:20:29.863Z,995.36
2016-12-17T10:21:38.557Z,995.34
2016-12-17T10:22:47.247Z,995.37
2016-12-17T10:23:55.939Z,995.38
2016-12-17T10:25:04.631Z,995.39
2016-12-17T10:26:13.318Z,995.36
2016-12-17T10:27:22.014Z,995.38
2016-12-17T10:28:30.705Z,995.38
2016-12-17T10:29:39.391Z,995.32
2016-12-17T10:30:48.085Z,995.35
2016-12-17T10:31:56.777Z,995.32
2016-12-17T10:33:05.465Z,995.3
2016-12-17T10:34:14.154Z,995.31
2016-12-17T10:35:22.851Z,995.23
2016-12-17T10:36:31.536Z,995.24
2016-12-17T10:37:40.225Z,995.24
2016-12-17T10:38:48.914Z,995.24
2016-12-17T10:39:57.600Z,995.24
2016-12-17T10:41:06.290Z,995.23
2016-12-17T10:42:14.982Z,995.23
2016-12-17T10:43:23.676Z,995.14
2016-12-17T10:44:32.412Z,995.2
2016-12-17T10:45:41.110Z,995.24
2016-12-17T10:46:49.797Z,995.18
2016-12-17T10:47:58.487Z,995.19
2016-12-17T10:49:07.175Z,995.19
2016-12-17T10:50:15.870Z,995.23
2016-12-17T10:51:24.561Z,995.28
2016-12-17T10:52:33.247Z,995.31
2016-12-17T10:53:42.251Z,995.28
2016-12-17T10:54:50.940Z,995.29
2016-12-17T10:55:59.629Z,995.27
2016-12-17T10:57:08.321Z,995.32
2016-12-17T10:58:17.008Z,995.33
2016-12-17T10:59:25.697Z,995.31
2016-12-17T11:00:34.387Z,995.21
2016-12-17T11:01:43.076Z,995.18
2016-12-17T11:02:51.767Z,995.16
2016-12-17T11:04:00.454Z,995.18
2016-12-17T11:05:09.137Z,995.17
2016-12-17T11:06:17.829Z,995.18
2016-12-17T11:07:26.840Z,995.15
2016-12-17T11:08:35.561Z,995.15
2016-12-17T11:09:44.248Z,995.2
2016-12-17T11:10:52.935Z,995.14
2016-12-17T11:12:01.629Z,995.12
2016-12-17T11:13:10.321Z,995.12
2016-12-17T11:14:19.005Z,995.11
2016-12-17T11:15:27.725Z,995.02
2016-12-17T11:16:36.427Z,995
2016-12-17T11:17:45.464Z,994.99
2016-12-17T11:18:54.149Z,995
2016-12-17T11:20:02.837Z,995.03
2016-12-17T11:21:11.527Z,995.05
2016-12-17T11:22:20.219Z,995.02
2016-12-17T11:23:28.910Z,994.96
2016-12-17T11:24:37.625Z,994.94
2016-12-17T11:25:46.312Z,994.91
2016-12-17T11:26:55.001Z,994.9
2016-12-17T11:28:03.693Z,994.97
2016-12-17T11:29:12.384Z,994.97
2016-12-17T11:30:21.071Z,994.96
2016-12-17T11:31:29.758Z,995.02
2016-12-17T11:32:38.447Z,995
2016-12-17T11:33:47.137Z,994.95
2016-12-17T11:34:55.826Z,994.88
2016-12-17T11:36:04.833Z,994.8
2016-12-17T11:37:13.520Z,994.77
2016-12-17T11:38:22.214Z,994.71
2016-12-17T11:39:30.936Z,994.7
2016-12-17T11:40:39.623Z,994.69
2016-12-17T11:41:48.314Z,994.63
2016-12-17T11:42:57.001Z,994.64
2016-12-17T11:44:05.694Z,994.63
2016-12-17T11:45:14.384Z,994.6
2016-12-17T11:46:23.076Z,994.64
2016-12-17T11:47:31.764Z,994.68
2016-12-17T11:48:40.452Z,994.63
2016-12-17T11:49:49.167Z,994.66
2016-12-17T11:50:57.863Z,994.66
2016-12-17T11:52:06.555Z,994.64
2016-12-17T11:53:15.246Z,994.66
2016-12-17T11:54:23.940Z,994.67
2016-12-17T11:55:32.622Z,994.69
2016-12-17T11:56:41.309Z,994.71
2016-12-17T11:57:49.997Z,994.74
2016-12-17T11:58:58.683Z,994.78
2016-12-17T12:00:07.372Z,994.81
2016-12-17T12:01:16.059Z,994.71
2016-12-17T12:02:24.752Z,994.67
2016-12-17T12:03:33.438Z,994.65
2016-12-17T12:04:42.128Z,994.7
2016-12-17T12:05:50.823Z,994.68
2016-12-17T12:06:59.511Z,994.56
2016-12-17T12:08:08.196Z,994.53
2016-12-17T12:09:16.891Z,994.47
2016-12-17T12:10:25.577Z,994.48
2016-12-17T12:11:34.295Z,994.49
2016-12-17T12:12:42.987Z,994.47
2016-12-17T12:13:51.668Z,994.5
2016-12-17T12:15:00.357Z,994.54
2016-12-17T12:16:09.365Z,994.63
2016-12-17T12:17:18.056Z,994.65
2016-12-17T12:18:26.746Z,994.61
2016-12-17T12:19:35.436Z,994.57
2016-12-17T12:20:44.130Z,994.54
2016-12-17T12:21:52.818Z,994.56
2016-12-17T12:23:01.504Z,994.58
2016-12-17T12:24:10.192Z,994.55
2016-12-17T12:25:18.874Z,994.53
2016-12-17T12:26:27.571Z,994.52
2016-12-17T12:27:36.264Z,994.55
2016-12-17T12:28:44.953Z,994.58
2016-12-17T12:29:53.646Z,994.52
2016-12-17T12:31:02.337Z,994.48
2016-12-17T12:32:11.053Z,994.49
2016-12-17T12:33:19.738Z,994.49
2016-12-17T12:34:28.430Z,994.51
2016-12-17T12:35:37.121Z,994.49
2016-12-17T12:36:45.815Z,994.4
2016-12-17T12:37:54.507Z,994.45
2016-12-17T12:39:03.199Z,994.42
2016-12-17T12:40:11.891Z,994.46
2016-12-17T12:41:20.584Z,994.42
2016-12-17T12:42:29.277Z,994.4
2016-12-17T12:43:38.002Z,994.42
2016-12-17T12:44:46.696Z,994.46
2016-12-17T12:45:55.384Z,994.48
2016-12-17T12:47:04.072Z,994.41
2016-12-17T12:48:12.768Z,994.34
2016-12-17T12:49:21.459Z,994.29
2016-12-17T12:50:30.152Z,994.2
2016-12-17T12:51:38.873Z,994.16
2016-12-17T12:52:47.572Z,994.13
2016-12-17T12:53:56.260Z,994.14
2016-12-17T12:55:04.958Z,994.13
2016-12-17T12:56:13.653Z,994.08
2016-12-17T12:57:22.340Z,994.03
2016-12-17T12:58:31.029Z,994.05
2016-12-17T12:59:39.721Z,994.07
2016-12-17T13:00:48.407Z,994.2
2016-12-17T13:01:57.097Z,994.32
2016-12-17T13:03:05.786Z,994.34
2016-12-17T13:04:14.476Z,994.23
2016-12-17T13:05:23.486Z,994.25
2016-12-17T13:06:32.177Z,994.26
2016-12-17T13:07:40.870Z,994.28
2016-12-17T13:08:49.557Z,994.29
2016-12-17T13:09:58.241Z,994.23
2016-12-17T13:11:06.930Z,994.19
2016-12-17T13:12:15.618Z,994.12
2016-12-17T13:13:24.308Z,994.05
2016-12-17T13:14:33.027Z,994.03
2016-12-17T13:15:41.713Z,994.07
2016-12-17T13:16:50.394Z,994.05
2016-12-17T13:17:59.086Z,994.01
2016-12-17T13:19:07.774Z,994.04
2016-12-17T13:20:16.463Z,994.04
2016-12-17T13:21:25.146Z,994.08
2016-12-17T13:22:33.832Z,994.14
2016-12-17T13:23:42.519Z,994.15
2016-12-17T13:24:51.204Z,994.1
2016-12-17T13:25:59.893Z,994.01
2016-12-17T13:27:08.584Z,994.01
2016-12-17T13:28:17.284Z,993.96
2016-12-17T13:29:25.980Z,993.97
2016-12-17T13:30:34.668Z,993.94
2016-12-17T13:31:43.366Z,993.97
2016-12-17T13:32:52.079Z,993.92
2016-12-17T13:34:01.083Z,993.94
2016-12-17T13:35:09.772Z,993.93
2016-12-17T13:36:18.461Z,993.93
2016-12-17T13:37:27.150Z,993.97
2016-12-17T13:38:35.838Z,993.91
2016-12-17T13:39:44.520Z,993.79
2016-12-17T13:40:53.209Z,993.72
2016-12-17T13:42:01.892Z,993.74
2016-12-17T13:43:10.585Z,993.85
2016-12-17T13:44:19.308Z,993.85
2016-12-17T13:45:28.031Z,993.81
2016-12-17T13:46:36.718Z,993.84
2016-12-17T13:47:45.401Z,993.8
2016-12-17T13:48:54.090Z,993.75
2016-12-17T13:50:02.777Z,993.78
2016-12-17T13:51:11.464Z,993.75
2016-12-17T13:52:20.161Z,993.79
2016-12-17T13:53:28.852Z,993.76
2016-12-17T13:54:37.540Z,993.73
2016-12-17T13:55:46.262Z,993.71
2016-12-17T13:56:54.946Z,993.67
2016-12-17T13:58:03.661Z,993.72
2016-12-17T13:59:12.350Z,993.72
2016-12-17T14:00:21.035Z,993.65
2016-12-17T14:01:29.723Z,993.63
2016-12-17T14:02:38.414Z,993.63
2016-12-17T14:03:47.101Z,993.57
2016-12-17T14:04:56.113Z,993.53
2016-12-17T14:06:05.119Z,993.52
2016-12-17T14:07:13.800Z,993.53
2016-12-17T14:08:22.494Z,993.56
2016-12-17T14:09:31.206Z,993.54
2016-12-17T14:10:39.897Z,993.55
2016-12-17T14:11:48.590Z,993.56
2016-12-17T14:12:57.277Z,993.53
2016-12-17T14:14:05.962Z,993.53
2016-12-17T14:15:14.649Z,993.52
2016-12-17T14:16:23.344Z,993.49
2016-12-17T14:17:32.037Z,993.53
2016-12-17T14:18:40.735Z,993.55
2016-12-17T14:19:49.742Z,993.48